createdAt,value
2022-12-29T00:00:08.450Z,95012.31
2022-12-29T00:02:35.241Z,95011.94
2022-12-29T00:05:01.894Z,95015.91
2022-12-29T00:07:28.688Z,95016.22
2022-12-29T00:09:55.270Z,95014.03
2022-12-29T00:12:22.011Z,95013.81
2022-12-29T00:15:07.283Z,95021.63
2022-12-29T00:17:33.956Z,95014.16
2022-12-29T00:20:19.282Z,95019.97
2022-12-29T00:23:04.817Z,95023.41
2022-12-29T00:25:49.927Z,95028.75
2022-12-29T00:28:51.815Z,95032.50
2022-12-29T00:31:36.925Z,95025.94
2022-12-29T00:34:22.329Z,95028.97
2022-12-29T00:36:49.001Z,95039.28
2022-12-29T00:39:38.032Z,95038.50
2022-12-29T00:42:27.807Z,95041.38
2022-12-29T00:44:54.498Z,95044.31
2022-12-29T00:47:21.178Z,95045.72
2022-12-29T00:49:47.963Z,95050.44
2022-12-29T00:52:15.179Z,95048.63
2022-12-29T00:54:42.592Z,95038.72
2022-12-29T00:57:10.799Z,95042.16
2022-12-29T00:59:38.895Z,95042.25
2022-12-29T01:02:05.695Z,95045.63
2022-12-29T01:04:32.784Z,95041.06
2022-12-29T01:06:59.759Z,95037.59
2022-12-29T01:09:50.209Z,95026.38
2022-12-29T01:12:17.047Z,95035.03
2022-12-29T01:14:44.985Z,95039.09
2022-12-29T01:17:11.599Z,95036.41
2022-12-29T01:19:38.367Z,95035.16
2022-12-29T01:22:04.985Z,95034.25
2022-12-29T01:24:31.672Z,95026.88
2022-12-29T01:26:58.338Z,95019.50
2022-12-29T01:29:25.052Z,95023.44
2022-12-29T01:31:51.742Z,95028.84
2022-12-29T01:34:19.317Z,95025.56
2022-12-29T01:36:52.193Z,95019.78
2022-12-29T01:39:18.827Z,95019.34
2022-12-29T01:41:45.509Z,95014.50
2022-12-29T01:44:49.589Z,95009.59
2022-12-29T01:47:27.090Z,95004.09
2022-12-29T01:49:56.957Z,95001.91
2022-12-29T01:52:25.236Z,95003.06
2022-12-29T01:54:54.838Z,95000.50
2022-12-29T01:57:27.279Z,95006.06
2022-12-29T01:59:59.450Z,94999.94
2022-12-29T02:02:26.490Z,95001.94
2022-12-29T02:04:58.912Z,94997.75
2022-12-29T02:07:29.997Z,94987.31
2022-12-29T02:09:57.329Z,94989.19
2022-12-29T02:12:25.001Z,94983.81
2022-12-29T02:14:56.831Z,94977.25
2022-12-29T02:17:59.454Z,94984.56
2022-12-29T02:21:19.448Z,94982.75
2022-12-29T02:24:04.549Z,94977.75
2022-12-29T02:26:49.193Z,94984.03
2022-12-29T02:29:43.051Z,94989.50
2022-12-29T02:32:37.832Z,94987.16
2022-12-29T02:35:04.422Z,94987.56
2022-12-29T02:38:02.398Z,94990.34
2022-12-29T02:40:44.013Z,94991.31
2022-12-29T02:43:31.909Z,94991.22
2022-12-29T02:46:05.033Z,94995.91
2022-12-29T02:48:34.733Z,94998.47
2022-12-29T02:51:11.943Z,94985.88
2022-12-29T02:53:57.677Z,94991.03
2022-12-29T02:56:24.312Z,94984.34
2022-12-29T02:58:50.984Z,94989.56
2022-12-29T03:01:32.397Z,94979.69
2022-12-29T03:04:26.678Z,94969.47
2022-12-29T03:07:06.364Z,94978.56
2022-12-29T03:09:34.177Z,94974.38
2022-12-29T03:12:23.407Z,94973.56
2022-12-29T03:15:23.441Z,94964.00
2022-12-29T03:18:08.607Z,94965.72
2022-12-29T03:20:45.305Z,94961.50
2022-12-29T03:23:14.510Z,94957.81
2022-12-29T03:25:49.554Z,94964.75
2022-12-29T03:28:26.827Z,94970.88
2022-12-29T03:30:54.144Z,94966.66
2022-12-29T03:33:25.319Z,94968.66
2022-12-29T03:35:56.860Z,94971.75
2022-12-29T03:38:48.484Z,94968.63
2022-12-29T03:41:24.863Z,94973.47
2022-12-29T03:43:51.455Z,94972.00
2022-12-29T03:46:18.135Z,94970.34
2022-12-29T03:48:45.130Z,94961.38
2022-12-29T03:51:11.761Z,94973.72
2022-12-29T03:53:38.387Z,94978.94
2022-12-29T03:56:05.109Z,94980.97
2022-12-29T03:58:31.781Z,94988.97
2022-12-29T04:00:58.492Z,94985.56
2022-12-29T04:03:25.293Z,94985.13
2022-12-29T04:05:51.872Z,94990.09
2022-12-29T04:08:18.538Z,95000.41
2022-12-29T04:10:45.167Z,94997.78
2022-12-29T04:13:11.756Z,94993.28
2022-12-29T04:15:38.430Z,94985.19
2022-12-29T04:18:05.113Z,94985.06
2022-12-29T04:20:50.403Z,94983.63
2022-12-29T04:23:17.007Z,94978.69
2022-12-29T04:25:47.084Z,94984.25
2022-12-29T04:28:14.274Z,94984.38
2022-12-29T04:30:41.317Z,94993.25
2022-12-29T04:33:08.088Z,94994.91
2022-12-29T04:35:34.767Z,94996.16
2022-12-29T04:38:02.777Z,94987.66
2022-12-29T04:40:29.724Z,95004.41
2022-12-29T04:42:56.368Z,95004.13
2022-12-29T04:45:23.340Z,95012.97
2022-12-29T04:47:50.010Z,95015.28
2022-12-29T04:50:16.804Z,95013.69
2022-12-29T04:52:44.690Z,95022.47
2022-12-29T04:55:11.831Z,95018.69
2022-12-29T04:57:38.400Z,95022.28
2022-12-29T05:00:05.943Z,95026.25
2022-12-29T05:02:37.713Z,95024.31
2022-12-29T05:05:05.517Z,95024.38
2022-12-29T05:07:34.462Z,95022.09
2022-12-29T05:10:01.099Z,95021.94
2022-12-29T05:12:31.776Z,95025.84
2022-12-29T05:14:58.585Z,95029.75
2022-12-29T05:17:25.227Z,95024.88
2022-12-29T05:19:59.057Z,95035.13
2022-12-29T05:22:25.856Z,95025.84
2022-12-29T05:24:52.631Z,95032.34
2022-12-29T05:27:19.210Z,95029.16
2022-12-29T05:29:45.858Z,95025.84
2022-12-29T05:32:12.481Z,95022.03
2022-12-29T05:34:39.047Z,95026.78
2022-12-29T05:37:05.775Z,95022.31
2022-12-29T05:39:32.411Z,95030.38
2022-12-29T05:41:59.606Z,95024.31
2022-12-29T05:44:26.184Z,95032.31
2022-12-29T05:46:52.988Z,95027.91
2022-12-29T05:49:19.740Z,95029.59
2022-12-29T05:51:46.497Z,95030.91
2022-12-29T05:54:13.580Z,95032.63
2022-12-29T05:56:40.249Z,95033.34
2022-12-29T05:59:06.872Z,95040.78
2022-12-29T06:01:35.418Z,95037.25
2022-12-29T06:04:02.367Z,95045.25
2022-12-29T06:06:29.164Z,95037.69
2022-12-29T06:08:56.010Z,95039.06
2022-12-29T06:11:22.664Z,95042.94
2022-12-29T06:13:49.265Z,95046.38
2022-12-29T06:16:15.887Z,95044.00
2022-12-29T06:18:42.627Z,95048.00
2022-12-29T06:21:09.203Z,95047.66
2022-12-29T06:23:35.815Z,95040.91
2022-12-29T06:26:02.416Z,95048.69
2022-12-29T06:28:29.064Z,95039.06
2022-12-29T06:30:55.713Z,95042.84
2022-12-29T06:33:22.377Z,95048.69
2022-12-29T06:35:49.054Z,95052.97
2022-12-29T06:38:18.255Z,95051.09
2022-12-29T06:40:46.081Z,95053.47
2022-12-29T06:43:18.063Z,95053.34
2022-12-29T06:45:44.871Z,95056.38
2022-12-29T06:48:11.589Z,95057.09
2022-12-29T06:50:38.263Z,95059.50
2022-12-29T06:53:05.007Z,95058.00
2022-12-29T06:55:31.806Z,95058.53
2022-12-29T06:58:01.996Z,95044.66
2022-12-29T07:00:28.834Z,95060.47
2022-12-29T07:02:57.408Z,95051.03
2022-12-29T07:05:24.261Z,95057.19
2022-12-29T07:07:50.886Z,95053.78
2022-12-29T07:10:17.698Z,95061.09
2022-12-29T07:12:44.323Z,95057.22
2022-12-29T07:15:11.327Z,95059.03
2022-12-29T07:17:37.912Z,95055.75
2022-12-29T07:20:05.016Z,95059.44
2022-12-29T07:22:31.592Z,95062.38
2022-12-29T07:24:58.291Z,95058.72
2022-12-29T07:27:24.879Z,95060.25
2022-12-29T07:29:51.686Z,95066.38
2022-12-29T07:32:18.345Z,95059.50
2022-12-29T07:34:48.323Z,95061.50
2022-12-29T07:37:18.608Z,95053.56
2022-12-29T07:39:45.353Z,95059.91
2022-12-29T07:42:11.949Z,95057.22
2022-12-29T07:44:38.647Z,95051.66
2022-12-29T07:47:05.316Z,95056.59
2022-12-29T07:49:32.019Z,95059.72
2022-12-29T07:51:58.578Z,95055.22
2022-12-29T07:54:25.302Z,95069.38
2022-12-29T07:56:55.897Z,95057.34
2022-12-29T07:59:22.605Z,95065.34
2022-12-29T08:01:49.235Z,95073.75
2022-12-29T08:04:16.121Z,95078.75
2022-12-29T08:06:51.061Z,95075.13
2022-12-29T08:09:22.273Z,95079.06
2022-12-29T08:11:49.603Z,95075.19
2022-12-29T08:14:16.284Z,95075.44
2022-12-29T08:16:42.930Z,95073.75
2022-12-29T08:19:12.563Z,95080.72
2022-12-29T08:21:40.059Z,95069.53
2022-12-29T08:24:08.945Z,95084.31
2022-12-29T08:26:36.319Z,95076.56
2022-12-29T08:29:02.933Z,95067.63
2022-12-29T08:31:29.649Z,95067.00
2022-12-29T08:33:56.359Z,95062.09
2022-12-29T08:36:22.994Z,95063.94
2022-12-29T08:38:49.913Z,95068.59
2022-12-29T08:41:16.471Z,95070.91
2022-12-29T08:43:47.438Z,95072.47
2022-12-29T08:46:14.520Z,95085.81
2022-12-29T08:48:41.196Z,95072.41
2022-12-29T08:51:08.791Z,95078.56
2022-12-29T08:53:35.935Z,95073.44
2022-12-29T08:56:05.411Z,95073.75
2022-12-29T08:58:33.100Z,95064.63
2022-12-29T09:01:00.289Z,95062.94
2022-12-29T09:03:54.913Z,95062.38
2022-12-29T09:06:15.490Z,95045.09
2022-12-29T09:08:42.119Z,95040.06
2022-12-29T09:11:13.455Z,95048.59
2022-12-29T09:13:40.084Z,95046.84
2022-12-29T09:16:07.341Z,95046.66
2022-12-29T09:18:34.463Z,95046.59
2022-12-29T09:21:03.734Z,95038.84
2022-12-29T09:23:30.597Z,95048.38
2022-12-29T09:25:57.537Z,95030.84
2022-12-29T09:28:24.419Z,95030.97
2022-12-29T09:30:51.571Z,95033.06
2022-12-29T09:33:23.907Z,95030.66
2022-12-29T09:35:56.161Z,95030.53
2022-12-29T09:38:24.420Z,95034.00
2022-12-29T09:40:54.112Z,95021.22
2022-12-29T09:43:45.557Z,95022.38
2022-12-29T09:46:33.219Z,95017.81
2022-12-29T09:49:18.958Z,95019.06
2022-12-29T09:51:50.512Z,95018.13
2022-12-29T09:54:17.059Z,95009.97
2022-12-29T09:56:44.504Z,95013.16
2022-12-29T09:59:24.808Z,95005.28
2022-12-29T10:02:26.886Z,95000.31
2022-12-29T10:04:53.575Z,95002.78
2022-12-29T10:07:40.689Z,94997.28
2022-12-29T10:10:28.938Z,95000.69
2022-12-29T10:13:16.620Z,94992.94
2022-12-29T10:15:58.558Z,94991.00
2022-12-29T10:18:27.914Z,94982.78
2022-12-29T10:21:09.385Z,94977.81
2022-12-29T10:23:46.544Z,94979.38
2022-12-29T10:26:28.624Z,94981.06
2022-12-29T10:29:25.922Z,94982.63
2022-12-29T10:31:58.899Z,94973.75
2022-12-29T10:34:33.492Z,94971.72
2022-12-29T10:37:09.879Z,94978.31
2022-12-29T10:39:48.840Z,94973.28
2022-12-29T10:42:30.339Z,94965.03
2022-12-29T10:44:58.460Z,94967.78
2022-12-29T10:47:31.346Z,94962.69
2022-12-29T10:50:02.015Z,94963.28
2022-12-29T10:52:30.431Z,94957.06
2022-12-29T10:55:31.862Z,94950.13
2022-12-29T10:58:05.712Z,94943.47
2022-12-29T11:00:33.482Z,94942.75
2022-12-29T11:03:18.598Z,94930.44
2022-12-29T11:06:13.681Z,94934.63
2022-12-29T11:08:48.308Z,94924.66
2022-12-29T11:11:27.938Z,94931.72
2022-12-29T11:14:20.934Z,94930.47
2022-12-29T11:17:01.923Z,94925.78
2022-12-29T11:19:36.065Z,94924.09
2022-12-29T11:22:33.417Z,94925.84
2022-12-29T11:25:13.453Z,94918.59
2022-12-29T11:27:40.845Z,94919.81
2022-12-29T11:30:28.613Z,94915.69
2022-12-29T11:32:56.113Z,94910.75
2022-12-29T11:35:39.815Z,94913.06
2022-12-29T11:38:07.060Z,94918.97
2022-12-29T11:40:40.419Z,94907.63
2022-12-29T11:43:07.415Z,94914.84
2022-12-29T11:45:38.206Z,94907.25
2022-12-29T11:48:10.187Z,94914.09
2022-12-29T11:50:43.331Z,94910.94
2022-12-29T11:53:25.408Z,94910.47
2022-12-29T11:55:58.441Z,94916.25
2022-12-29T11:58:33.724Z,94906.75
2022-12-29T12:01:20.836Z,94901.91
2022-12-29T12:04:13.909Z,94904.19
2022-12-29T12:06:47.512Z,94905.13
2022-12-29T12:09:19.736Z,94904.28
2022-12-29T12:11:47.719Z,94896.22
2022-12-29T12:14:49.565Z,94900.91
2022-12-29T12:17:21.823Z,94906.88
2022-12-29T12:19:59.135Z,94895.22
2022-12-29T12:22:39.838Z,94889.47
2022-12-29T12:25:17.341Z,94889.19
2022-12-29T12:27:48.732Z,94885.44
2022-12-29T12:30:24.170Z,94882.72
2022-12-29T12:33:13.908Z,94880.34
2022-12-29T12:35:52.623Z,94881.66
2022-12-29T12:38:40.803Z,94879.22
2022-12-29T12:41:21.316Z,94883.19
2022-12-29T12:43:56.067Z,94876.78
2022-12-29T12:46:51.513Z,94890.78
2022-12-29T12:49:25.485Z,94868.06
2022-12-29T12:51:59.449Z,94867.00
2022-12-29T12:54:41.524Z,94869.03
2022-12-29T12:57:35.449Z,94873.91
2022-12-29T13:00:22.689Z,94868.09
2022-12-29T13:02:52.390Z,94873.00
2022-12-29T13:05:31.374Z,94873.69
2022-12-29T13:08:25.525Z,94876.00
2022-12-29T13:11:15.410Z,94877.47
2022-12-29T13:14:01.454Z,94874.47
2022-12-29T13:17:20.451Z,94872.78
2022-12-29T13:19:53.611Z,94880.78
2022-12-29T13:22:29.156Z,94877.56
2022-12-29T13:25:11.308Z,94878.91
2022-12-29T13:27:43.589Z,94878.13
2022-12-29T13:30:17.275Z,94879.72
2022-12-29T13:33:21.166Z,94878.72
2022-12-29T13:36:06.233Z,94888.53
2022-12-29T13:38:41.211Z,94882.63
2022-12-29T13:41:12.437Z,94881.03
2022-12-29T13:43:43.265Z,94880.16
2022-12-29T13:46:23.081Z,94879.94
2022-12-29T13:49:20.733Z,94886.97
2022-12-29T13:51:51.257Z,94886.25
2022-12-29T13:54:32.128Z,94882.72
2022-12-29T13:57:11.347Z,94883.50
2022-12-29T13:59:42.709Z,94878.47
2022-12-29T14:02:09.499Z,94883.59
2022-12-29T14:04:36.853Z,94880.47
2022-12-29T14:07:15.843Z,94888.50
2022-12-29T14:09:52.000Z,94887.78
2022-12-29T14:12:39.618Z,94897.28
2022-12-29T14:15:14.691Z,94896.41
2022-12-29T14:17:42.284Z,94890.59
2022-12-29T14:20:23.972Z,94895.47
2022-12-29T14:23:17.984Z,94906.16
2022-12-29T14:26:05.783Z,94907.50
2022-12-29T14:28:41.492Z,94908.94
2022-12-29T14:31:20.280Z,94914.41
2022-12-29T14:34:11.783Z,94908.38
2022-12-29T14:36:38.710Z,94923.56
2022-12-29T14:39:40.101Z,94911.72
2022-12-29T14:42:09.642Z,94914.81
2022-12-29T14:44:52.984Z,94917.56
2022-12-29T14:47:42.351Z,94920.34
2022-12-29T14:50:09.246Z,94918.38
2022-12-29T14:52:47.031Z,94913.63
2022-12-29T14:55:37.794Z,94922.44
2022-12-29T14:58:13.671Z,94923.22
2022-12-29T15:00:48.047Z,94920.31
2022-12-29T15:03:20.761Z,94918.53
2022-12-29T15:05:52.781Z,94915.16
2022-12-29T15:08:24.139Z,94916.06
2022-12-29T15:10:58.222Z,94916.59
2022-12-29T15:13:37.796Z,94917.97
2022-12-29T15:16:05.962Z,94917.88
2022-12-29T15:18:34.484Z,94910.72
2022-12-29T15:21:07.736Z,94908.31
2022-12-29T15:23:44.346Z,94911.25
2022-12-29T15:26:11.824Z,94906.44
2022-12-29T15:28:45.782Z,94907.53
2022-12-29T15:31:28.054Z,94904.47
2022-12-29T15:34:10.747Z,94896.38
2022-12-29T15:36:40.404Z,94898.94
2022-12-29T15:39:29.968Z,94895.81
2022-12-29T15:42:15.403Z,94892.97
2022-12-29T15:44:44.734Z,94907.84
2022-12-29T15:47:21.848Z,94913.53
2022-12-29T15:49:50.694Z,94911.47
2022-12-29T15:52:22.263Z,94909.94
2022-12-29T15:54:54.806Z,94904.00
2022-12-29T15:57:27.250Z,94912.41
2022-12-29T15:59:55.048Z,94909.91
2022-12-29T16:02:24.626Z,94904.34
2022-12-29T16:07:41.987Z,94911.59
2022-12-29T16:10:31.508Z,94905.47
2022-12-29T16:13:24.256Z,94903.38
2022-12-29T16:15:57.619Z,94905.06
2022-12-29T16:18:35.958Z,94900.34
2022-12-29T16:21:06.205Z,94894.94
2022-12-29T16:23:33.628Z,94901.84
2022-12-29T16:26:00.724Z,94896.06
2022-12-29T16:28:37.352Z,94889.53
2022-12-29T16:31:16.382Z,94895.44
2022-12-29T16:33:47.904Z,94892.34
2022-12-29T16:36:28.342Z,94887.66
2022-12-29T16:39:11.487Z,94891.13
2022-12-29T16:41:38.149Z,94893.25
2022-12-29T16:44:22.657Z,94902.81
2022-12-29T16:47:06.443Z,94913.66
2022-12-29T16:49:35.217Z,94914.94
2022-12-29T16:52:02.615Z,94915.00
2022-12-29T16:54:38.278Z,94925.03
2022-12-29T16:57:05.334Z,94917.00
2022-12-29T16:59:36.349Z,94919.69
2022-12-29T17:02:08.964Z,94920.44
2022-12-29T17:04:35.769Z,94926.72
2022-12-29T17:07:02.433Z,94924.16
2022-12-29T17:09:29.746Z,94929.81
2022-12-29T17:12:10.480Z,94927.97
2022-12-29T17:14:46.300Z,94928.72
2022-12-29T17:17:31.364Z,94930.78
2022-12-29T17:20:04.024Z,94933.16
2022-12-29T17:22:30.968Z,94930.44
2022-12-29T17:24:59.567Z,94921.81
2022-12-29T17:27:30.913Z,94916.47
2022-12-29T17:30:02.211Z,94924.28
2022-12-29T17:32:29.456Z,94925.06
2022-12-29T17:34:56.012Z,94920.06
2022-12-29T17:37:25.676Z,94927.16
2022-12-29T17:39:52.527Z,94911.72
2022-12-29T17:42:20.372Z,94921.94
2022-12-29T17:44:47.525Z,94917.53
2022-12-29T17:47:16.010Z,94912.09
2022-12-29T17:49:46.398Z,94910.63
2022-12-29T17:52:17.501Z,94909.53
2022-12-29T17:54:51.076Z,94926.97
2022-12-29T17:57:20.511Z,94917.63
2022-12-29T17:59:47.150Z,94905.50
2022-12-29T18:02:29.488Z,94906.84
2022-12-29T18:04:57.647Z,94913.72
2022-12-29T18:07:31.147Z,94911.69
2022-12-29T18:10:16.647Z,94906.84
2022-12-29T18:12:46.570Z,94901.44
2022-12-29T18:15:47.251Z,94902.72
2022-12-29T18:18:16.183Z,94901.56
2022-12-29T18:20:43.798Z,94907.69
2022-12-29T18:23:22.143Z,94914.00
2022-12-29T18:26:05.737Z,94910.06
2022-12-29T18:28:32.352Z,94903.19
2022-12-29T18:31:00.995Z,94902.19
2022-12-29T18:33:28.570Z,94904.19
2022-12-29T18:36:04.310Z,94896.91
2022-12-29T18:38:35.082Z,94908.22
2022-12-29T18:41:01.673Z,94920.38
2022-12-29T18:43:28.328Z,94921.72
2022-12-29T18:45:59.356Z,94918.78
2022-12-29T18:48:29.301Z,94920.00
2022-12-29T18:51:07.624Z,94915.88
2022-12-29T18:53:38.105Z,94909.25
2022-12-29T18:56:05.194Z,94911.50
2022-12-29T18:58:34.239Z,94907.13
2022-12-29T19:01:01.681Z,94911.00
2022-12-29T19:03:28.519Z,94907.38
2022-12-29T19:05:55.507Z,94910.19
2022-12-29T19:08:24.669Z,94898.41
2022-12-29T19:10:51.493Z,94907.03
2022-12-29T19:13:23.722Z,94913.66
2022-12-29T19:15:50.362Z,94911.25
2022-12-29T19:21:06.699Z,94903.94
2022-12-29T19:23:33.450Z,94903.66
2022-12-29T19:26:00.116Z,94901.69
2022-12-29T19:28:29.081Z,94909.56
2022-12-29T19:30:59.989Z,94910.97
2022-12-29T19:33:28.153Z,94906.31
2022-12-29T19:36:00.152Z,94910.53
2022-12-29T19:38:26.817Z,94903.91
2022-12-29T19:40:53.418Z,94895.94
2022-12-29T19:43:20.124Z,94903.28
2022-12-29T19:45:46.856Z,94910.59
2022-12-29T19:48:19.743Z,94908.03
2022-12-29T19:50:46.522Z,94919.56
2022-12-29T19:53:13.877Z,94907.47
2022-12-29T19:55:45.021Z,94918.44
2022-12-29T19:58:12.582Z,94914.66
2022-12-29T20:00:41.198Z,94919.72
2022-12-29T20:03:08.069Z,94917.22
2022-12-29T20:05:37.787Z,94925.41
2022-12-29T20:08:04.594Z,94924.03
2022-12-29T20:10:31.307Z,94918.91
2022-12-29T20:12:57.921Z,94919.69
2022-12-29T20:15:24.520Z,94918.41
2022-12-29T20:20:37.828Z,94923.03
2022-12-29T20:23:04.538Z,94931.59
2022-12-29T20:25:47.532Z,94932.81
2022-12-29T20:28:17.770Z,94931.38
2022-12-29T20:30:44.568Z,94933.69
2022-12-29T20:33:12.466Z,94925.56
2022-12-29T20:35:39.241Z,94923.59
2022-12-29T20:38:06.258Z,94918.78
2022-12-29T20:40:32.987Z,94913.13
2022-12-29T20:42:59.605Z,94929.66
2022-12-29T20:45:26.773Z,94935.84
2022-12-29T20:47:55.644Z,94933.72
2022-12-29T20:50:24.746Z,94934.34
2022-12-29T20:52:53.491Z,94933.19
2022-12-29T20:55:20.136Z,94932.59
2022-12-29T21:00:33.496Z,94939.66
2022-12-29T21:03:02.150Z,94942.94
2022-12-29T21:05:28.978Z,94936.34
2022-12-29T21:07:56.145Z,94929.06
2022-12-29T21:10:23.146Z,94920.75
2022-12-29T21:12:50.034Z,94928.31
2022-12-29T21:15:16.787Z,94930.97
2022-12-29T21:17:44.084Z,94934.78
2022-12-29T21:20:19.792Z,94935.13
2022-12-29T21:22:47.907Z,94931.97
2022-12-29T21:25:14.846Z,94933.25
2022-12-29T21:27:44.617Z,94934.22
2022-12-29T21:30:12.307Z,94933.53
2022-12-29T21:32:40.743Z,94931.44
2022-12-29T21:35:09.069Z,94921.69
2022-12-29T21:37:36.464Z,94918.34
2022-12-29T21:40:04.261Z,94920.91
2022-12-29T21:42:30.904Z,94918.09
2022-12-29T21:45:20.485Z,94904.22
2022-12-29T21:48:06.854Z,94900.22
2022-12-29T21:50:33.722Z,94890.47
2022-12-29T21:53:00.434Z,94898.75
2022-12-29T21:55:30.320Z,94897.25
2022-12-29T21:58:15.641Z,94901.44
2022-12-29T22:01:00.570Z,94897.44
2022-12-29T22:03:48.997Z,94905.66
2022-12-29T22:06:34.765Z,94905.72
2022-12-29T22:09:20.711Z,94903.94
2022-12-29T22:12:06.005Z,94899.69
2022-12-29T22:14:32.569Z,94907.31
2022-12-29T22:16:59.177Z,94906.97
2022-12-29T22:19:26.320Z,94892.34
2022-12-29T22:21:55.612Z,94894.31
2022-12-29T22:24:22.276Z,94899.44
2022-12-29T22:26:48.865Z,94891.13
2022-12-29T22:29:15.525Z,94894.72
2022-12-29T22:31:42.249Z,94892.81
2022-12-29T22:34:10.909Z,94903.50
2022-12-29T22:36:37.559Z,94897.81
2022-12-29T22:39:04.655Z,94895.97
2022-12-29T22:41:31.356Z,94893.31
2022-12-29T22:43:58.054Z,94894.72
2022-12-29T22:46:24.801Z,94887.63
2022-12-29T22:48:56.619Z,94887.34
2022-12-29T22:51:23.378Z,94889.81
2022-12-29T22:53:50.883Z,94892.78
2022-12-29T22:56:17.913Z,94895.31
2022-12-29T22:58:46.988Z,94894.34
2022-12-29T23:01:15.989Z,94894.81
2022-12-29T23:03:43.384Z,94887.25
2022-12-29T23:06:14.082Z,94895.84
2022-12-29T23:08:40.818Z,94899.78
2022-12-29T23:11:10.536Z,94897.72
2022-12-29T23:13:38.224Z,94890.25
2022-12-29T23:16:05.072Z,94902.88
2022-12-29T23:18:31.824Z,94895.63
2022-12-29T23:20:58.533Z,94897.13
2022-12-29T23:23:48.918Z,94891.63
2022-12-29T23:26:19.770Z,94887.00
2022-12-29T23:28:46.475Z,94886.97
2022-12-29T23:31:13.899Z,94879.44
2022-12-29T23:33:40.773Z,94887.91
2022-12-29T23:36:08.574Z,94893.06
2022-12-29T23:38:35.584Z,94886.66
2022-12-29T23:41:02.431Z,94879.50
2022-12-29T23:43:29.079Z,94881.81
2022-12-29T23:45:55.686Z,94879.44
2022-12-29T23:48:22.447Z,94880.59
2022-12-29T23:50:49.132Z,94884.81
2022-12-29T23:53:15.798Z,94883.34
2022-12-29T23:55:44.041Z,94880.59
2022-12-29T23:58:11.113Z,94878.22
